createdAt,value
2022-12-03T00:01:20.568Z,17.05
2022-12-03T00:03:48.675Z,19.15
2022-12-03T00:06:17.554Z,17.58
2022-12-03T00:08:45.462Z,17.55
2022-12-03T00:11:13.368Z,16.75
2022-12-03T00:13:41.372Z,17.02
2022-12-03T00:16:09.506Z,17.13
2022-12-03T00:18:38.930Z,17.10
2022-12-03T00:21:07.554Z,15.90
2022-12-03T00:23:41.537Z,17.50
2022-12-03T00:26:10.193Z,18.17
2022-12-03T00:28:38.116Z,18.00
2022-12-03T00:31:06.353Z,17.98
2022-12-03T00:33:34.446Z,18.13
2022-12-03T00:36:03.730Z,18.38
2022-12-03T00:38:32.146Z,17.23
2022-12-03T00:41:00.067Z,18.83
2022-12-03T00:43:27.994Z,17.92
2022-12-03T00:45:55.961Z,18.73
2022-12-03T00:48:23.917Z,18.42
2022-12-03T00:50:51.889Z,19.02
2022-12-03T00:53:21.203Z,18.42
2022-12-03T00:55:50.583Z,18.83
2022-12-03T00:58:18.621Z,19.20
2022-12-03T01:00:46.527Z,17.92
2022-12-03T01:03:14.486Z,18.17
2022-12-03T01:05:42.443Z,17.50
2022-12-03T01:08:10.400Z,17.70
2022-12-03T01:10:39.713Z,18.38
2022-12-03T01:13:07.807Z,18.95
2022-12-03T01:15:35.866Z,19.23
2022-12-03T01:18:03.819Z,19.02
2022-12-03T01:20:31.705Z,18.27
2022-12-03T01:22:59.612Z,17.88
2022-12-03T01:25:27.519Z,19.70
2022-12-03T01:27:57.129Z,19.98
2022-12-03T01:30:25.057Z,19.25
2022-12-03T01:32:52.010Z,19.77
2022-12-03T01:35:19.956Z,18.70
2022-12-03T01:37:48.973Z,18.52
2022-12-03T01:40:20.823Z,20.02
2022-12-03T01:42:48.880Z,19.75
2022-12-03T01:45:23.738Z,20.25
2022-12-03T01:47:51.937Z,19.60
2022-12-03T01:50:24.028Z,19.02
2022-12-03T01:52:52.144Z,19.13
2022-12-03T01:55:24.483Z,20.05
2022-12-03T01:57:55.629Z,19.60
2022-12-03T02:00:27.713Z,19.83
2022-12-03T02:02:57.892Z,18.73
2022-12-03T02:05:27.601Z,18.38
2022-12-03T02:07:56.213Z,18.88
2022-12-03T02:10:27.633Z,18.85
2022-12-03T02:12:59.060Z,18.38
2022-12-03T02:15:28.519Z,20.25
2022-12-03T02:17:57.691Z,18.63
2022-12-03T02:20:25.731Z,18.15
2022-12-03T02:23:01.505Z,20.83
2022-12-03T02:25:32.853Z,18.92
2022-12-03T02:28:01.720Z,18.35
2022-12-03T02:30:31.528Z,18.30
2022-12-03T02:33:00.320Z,19.23
2022-12-03T02:35:31.227Z,20.60
2022-12-03T02:38:04.987Z,19.90
2022-12-03T02:40:35.455Z,19.30
2022-12-03T02:43:04.266Z,18.42
2022-12-03T02:45:35.204Z,19.33
2022-12-03T02:48:07.856Z,19.50
2022-12-03T02:50:38.720Z,17.60
2022-12-03T02:53:09.441Z,18.48
2022-12-03T02:55:39.309Z,18.80
2022-12-03T02:58:07.688Z,19.88
2022-12-03T03:00:37.264Z,20.02
2022-12-03T03:03:07.334Z,20.15
2022-12-03T03:05:36.981Z,19.08
2022-12-03T03:08:05.696Z,19.38
2022-12-03T03:10:35.508Z,19.40
2022-12-03T03:13:09.640Z,18.98
2022-12-03T03:15:38.085Z,21.45
2022-12-03T03:18:06.423Z,20.02
2022-12-03T03:20:34.473Z,20.58
2022-12-03T03:23:07.924Z,20.63
2022-12-03T03:25:35.942Z,19.55
2022-12-03T03:28:05.985Z,19.95
2022-12-03T03:30:34.713Z,18.48
2022-12-03T03:33:02.836Z,18.58
2022-12-03T03:35:31.032Z,18.58
2022-12-03T03:37:59.666Z,20.52
2022-12-03T03:40:28.219Z,20.20
2022-12-03T03:42:56.693Z,21.90
2022-12-03T03:45:29.434Z,19.13
2022-12-03T03:47:59.856Z,18.58
2022-12-03T03:50:29.131Z,18.77
2022-12-03T03:52:58.680Z,18.67
2022-12-03T03:55:26.831Z,20.50
2022-12-03T03:57:54.968Z,20.23
2022-12-03T04:00:23.085Z,20.67
2022-12-03T04:02:53.397Z,19.55
2022-12-03T04:05:23.775Z,18.80
2022-12-03T04:07:52.119Z,20.60
2022-12-03T04:10:34.059Z,19.58
2022-12-03T04:13:02.609Z,20.05
2022-12-03T04:15:30.532Z,18.50
2022-12-03T04:18:19.799Z,19.42
2022-12-03T04:20:47.723Z,20.33
2022-12-03T04:23:14.724Z,19.73
2022-12-03T04:26:00.090Z,19.85
2022-12-03T04:28:45.872Z,19.10
2022-12-03T04:31:31.369Z,18.13
2022-12-03T04:36:46.217Z,18.77
2022-12-03T04:39:14.099Z,19.50
2022-12-03T04:41:42.155Z,19.70
2022-12-03T04:44:27.438Z,20.83
2022-12-03T04:46:55.513Z,18.17
2022-12-03T04:49:24.899Z,18.45
2022-12-03T04:51:52.892Z,18.27
2022-12-03T04:54:22.615Z,21.17
2022-12-03T04:56:50.544Z,17.80
2022-12-03T04:59:18.448Z,17.98
2022-12-03T05:01:46.536Z,20.92
2022-12-03T05:04:15.644Z,20.02
2022-12-03T05:06:45.380Z,20.30
2022-12-03T05:09:14.153Z,19.95
2022-12-03T05:11:42.542Z,19.27
2022-12-03T05:14:11.025Z,18.50
2022-12-03T05:16:39.794Z,21.08
2022-12-03T05:19:08.921Z,18.67
2022-12-03T05:21:36.006Z,20.23
2022-12-03T05:24:06.251Z,19.77
2022-12-03T05:26:34.298Z,20.52
2022-12-03T05:29:02.402Z,20.65
2022-12-03T05:31:30.385Z,21.60
2022-12-03T05:33:58.336Z,19.55
2022-12-03T05:36:26.339Z,19.25
2022-12-03T05:38:54.266Z,22.10
2022-12-03T05:41:41.011Z,19.48
2022-12-03T05:44:08.899Z,21.27
2022-12-03T05:46:36.837Z,20.42
2022-12-03T05:49:04.836Z,20.17
2022-12-03T05:51:32.893Z,22.92
2022-12-03T05:54:00.876Z,24.15
2022-12-03T05:56:30.144Z,23.40
2022-12-03T05:58:58.051Z,21.48
2022-12-03T06:01:26.042Z,21.05
2022-12-03T06:03:54.112Z,21.60
2022-12-03T06:06:22.072Z,24.63
2022-12-03T06:08:51.136Z,30.40
2022-12-03T06:11:19.076Z,23.63
2022-12-03T06:13:48.341Z,22.20
2022-12-03T06:16:16.334Z,27.42
2022-12-03T06:18:44.346Z,24.15
2022-12-03T06:21:12.318Z,26.73
2022-12-03T06:23:44.492Z,22.23
2022-12-03T06:26:12.719Z,22.33
2022-12-03T06:28:40.821Z,23.08
2022-12-03T06:31:10.191Z,21.08
2022-12-03T06:33:38.198Z,26.13
2022-12-03T06:36:06.926Z,23.63
2022-12-03T06:38:34.856Z,20.98
2022-12-03T06:41:02.809Z,20.65
2022-12-03T06:43:31.122Z,22.90
2022-12-03T06:45:59.141Z,21.08
2022-12-03T06:48:28.495Z,21.83
2022-12-03T06:50:56.467Z,22.42
2022-12-03T06:53:26.140Z,22.38
2022-12-03T06:55:54.117Z,22.83
2022-12-03T06:58:22.067Z,21.88
2022-12-03T07:00:50.074Z,21.33
2022-12-03T07:03:18.063Z,22.25
2022-12-03T07:05:47.517Z,22.42
2022-12-03T07:08:15.481Z,22.13
2022-12-03T07:10:43.473Z,23.75
2022-12-03T07:13:11.438Z,21.08
2022-12-03T07:15:39.366Z,23.75
2022-12-03T07:18:07.439Z,23.70
2022-12-03T07:20:35.352Z,22.35
2022-12-03T07:23:04.677Z,23.38
2022-12-03T07:25:32.698Z,22.63
2022-12-03T07:28:00.672Z,21.63
2022-12-03T07:30:28.758Z,20.02
2022-12-03T07:32:58.239Z,20.52
2022-12-03T07:35:26.315Z,21.58
2022-12-03T07:37:54.228Z,21.95
2022-12-03T07:40:23.560Z,23.40
2022-12-03T07:42:51.526Z,21.42
2022-12-03T07:45:19.585Z,21.92
2022-12-03T07:47:47.537Z,21.85
2022-12-03T07:50:15.639Z,22.27
2022-12-03T07:52:43.584Z,21.60
2022-12-03T07:55:13.318Z,21.85
2022-12-03T07:57:42.553Z,20.17
2022-12-03T08:00:12.875Z,21.60
2022-12-03T08:02:40.793Z,20.00
2022-12-03T08:05:09.177Z,19.08
2022-12-03T08:07:37.160Z,21.45
2022-12-03T08:10:06.723Z,19.85
2022-12-03T08:12:40.901Z,21.95
2022-12-03T08:15:15.985Z,18.70
2022-12-03T08:17:45.468Z,19.13
2022-12-03T08:20:18.111Z,19.95
2022-12-03T08:22:48.876Z,21.15
2022-12-03T08:25:21.529Z,18.75
2022-12-03T08:27:49.727Z,19.63
2022-12-03T08:30:20.275Z,21.38
2022-12-03T08:32:49.373Z,20.80
2022-12-03T08:35:24.202Z,21.00
2022-12-03T08:38:00.415Z,23.05
2022-12-03T08:40:35.807Z,20.52
2022-12-03T08:43:14.677Z,21.35
2022-12-03T08:45:44.156Z,21.00
2022-12-03T08:48:30.320Z,19.73
2022-12-03T08:50:59.755Z,17.70
2022-12-03T08:53:33.877Z,19.30
2022-12-03T08:56:02.839Z,20.90
2022-12-03T08:58:39.525Z,19.55
2022-12-03T09:01:40.464Z,20.65
2022-12-03T09:04:27.485Z,19.45
2022-12-03T09:06:56.100Z,19.48
2022-12-03T09:09:24.843Z,19.40
2022-12-03T09:11:53.864Z,18.88
2022-12-03T09:14:22.724Z,18.13
2022-12-03T09:16:55.855Z,18.73
2022-12-03T09:19:24.626Z,19.05
2022-12-03T09:21:53.026Z,20.35
2022-12-03T09:24:21.104Z,18.63
2022-12-03T09:26:49.310Z,18.17
2022-12-03T09:29:17.382Z,18.88
2022-12-03T09:31:45.422Z,19.50
2022-12-03T09:34:15.585Z,18.92
2022-12-03T09:36:43.603Z,20.35
2022-12-03T09:39:11.548Z,19.40
2022-12-03T09:41:39.753Z,18.92
2022-12-03T09:44:13.735Z,18.52
2022-12-03T09:46:46.508Z,18.35
2022-12-03T09:49:18.737Z,19.02
2022-12-03T09:51:47.399Z,18.33
2022-12-03T09:54:22.812Z,20.63
2022-12-03T09:56:51.108Z,20.55
2022-12-03T09:59:19.250Z,20.25
2022-12-03T10:01:47.520Z,20.80
2022-12-03T10:04:17.932Z,20.00
2022-12-03T10:06:46.455Z,20.52
2022-12-03T10:09:17.214Z,21.42
2022-12-03T10:11:47.426Z,20.13
2022-12-03T10:14:18.240Z,19.58
2022-12-03T10:16:47.106Z,20.48
2022-12-03T10:19:22.917Z,18.90
2022-12-03T10:21:51.077Z,20.45
2022-12-03T10:24:22.342Z,19.23
2022-12-03T10:26:51.955Z,19.83
2022-12-03T10:29:21.882Z,19.15
2022-12-03T10:31:57.366Z,19.17
2022-12-03T10:34:30.447Z,20.00
2022-12-03T10:37:12.802Z,20.05
2022-12-03T10:40:00.464Z,19.63
2022-12-03T10:42:30.059Z,20.08
2022-12-03T10:45:16.658Z,21.17
2022-12-03T10:48:04.704Z,21.45
2022-12-03T10:50:35.256Z,20.77
2022-12-03T10:53:03.916Z,19.23
2022-12-03T10:55:40.810Z,21.70
2022-12-03T10:58:19.687Z,19.30
2022-12-03T11:00:47.922Z,19.95
2022-12-03T11:03:22.396Z,21.52
2022-12-03T11:05:53.077Z,19.42
2022-12-03T11:08:23.396Z,21.15
2022-12-03T11:10:59.814Z,19.77
2022-12-03T11:13:46.539Z,20.80
2022-12-03T11:16:15.404Z,19.80
2022-12-03T11:19:02.617Z,20.75
2022-12-03T11:21:32.316Z,21.02
2022-12-03T11:24:28.376Z,20.13
2022-12-03T11:30:10.420Z,18.08
2022-12-03T11:33:06.187Z,20.27
2022-12-03T11:36:07.000Z,20.35
2022-12-03T11:38:52.309Z,22.48
2022-12-03T11:41:23.389Z,21.35
2022-12-03T11:44:04.282Z,21.80
2022-12-03T11:46:41.587Z,21.20
2022-12-03T11:49:40.578Z,22.08
2022-12-03T11:52:33.945Z,19.30
2022-12-03T11:55:17.185Z,21.15
2022-12-03T11:57:45.277Z,19.25
2022-12-03T12:00:20.808Z,21.23
2022-12-03T12:02:49.511Z,20.98
2022-12-03T12:05:29.624Z,20.63
2022-12-03T12:07:59.955Z,20.45
2022-12-03T12:10:49.930Z,20.90
2022-12-03T12:13:28.918Z,19.88
2022-12-03T12:15:59.209Z,20.00
2022-12-03T12:18:38.638Z,19.85
2022-12-03T12:21:40.775Z,20.45
2022-12-03T12:24:46.949Z,20.48
2022-12-03T12:27:18.487Z,19.33
2022-12-03T12:29:55.530Z,20.90
2022-12-03T12:32:27.990Z,19.77
2022-12-03T12:35:00.427Z,19.02
2022-12-03T12:37:34.446Z,21.33
2022-12-03T12:40:07.367Z,21.67
2022-12-03T12:42:39.214Z,20.05
2022-12-03T12:45:14.784Z,20.25
2022-12-03T12:47:49.775Z,20.25
2022-12-03T12:52:55.562Z,20.40
2022-12-03T12:55:24.961Z,21.52
2022-12-03T12:57:55.933Z,21.55
2022-12-03T13:00:25.113Z,21.83
2022-12-03T13:02:56.766Z,22.23
2022-12-03T13:05:27.842Z,22.83
2022-12-03T13:08:23.276Z,19.95
2022-12-03T13:10:51.911Z,22.33
2022-12-03T13:13:30.118Z,19.42
2022-12-03T13:16:05.638Z,21.30
2022-12-03T13:18:54.525Z,22.00
2022-12-03T13:21:36.287Z,21.00
2022-12-03T13:24:25.746Z,21.33
2022-12-03T13:26:54.053Z,20.85
2022-12-03T13:29:24.243Z,22.27
2022-12-03T13:31:54.860Z,20.65
2022-12-03T13:34:25.257Z,24.95
2022-12-03T13:36:58.020Z,21.77
2022-12-03T13:39:31.962Z,22.35
2022-12-03T13:42:31.326Z,21.10
2022-12-03T13:45:02.988Z,21.10
2022-12-03T13:47:31.388Z,21.77
2022-12-03T13:50:04.211Z,21.55
2022-12-03T13:52:35.480Z,20.67
2022-12-03T13:55:05.165Z,21.90
2022-12-03T13:57:33.312Z,25.58
2022-12-03T14:00:02.843Z,23.88
2022-12-03T14:02:40.857Z,22.58
2022-12-03T14:05:09.689Z,20.58
2022-12-03T14:07:38.763Z,21.60
2022-12-03T14:10:12.497Z,22.30
2022-12-03T14:12:42.220Z,23.77
2022-12-03T14:15:12.547Z,22.30
2022-12-03T14:17:40.511Z,23.13
2022-12-03T14:20:10.271Z,22.40
2022-12-03T14:22:39.078Z,23.75
2022-12-03T14:25:08.564Z,23.60
2022-12-03T14:27:36.855Z,23.55
2022-12-03T14:30:05.895Z,24.23
2022-12-03T14:32:35.368Z,22.33
2022-12-03T14:35:08.312Z,21.52
2022-12-03T14:37:38.009Z,20.23
2022-12-03T14:40:08.948Z,22.90
2022-12-03T14:42:37.444Z,22.92
2022-12-03T14:45:06.620Z,22.38
2022-12-03T14:47:37.356Z,22.08
2022-12-03T14:50:07.555Z,23.02
2022-12-03T14:52:36.620Z,23.48
2022-12-03T14:55:05.077Z,25.60
2022-12-03T14:57:33.434Z,22.05
2022-12-03T15:00:01.913Z,24.40
2022-12-03T15:02:31.046Z,25.33
2022-12-03T15:05:01.641Z,24.85
2022-12-03T15:07:32.079Z,25.50
2022-12-03T15:10:01.117Z,22.73
2022-12-03T15:12:30.258Z,24.80
2022-12-03T15:14:58.781Z,24.80
2022-12-03T15:17:32.095Z,27.05
2022-12-03T15:20:02.662Z,24.20
2022-12-03T15:22:30.898Z,25.25
2022-12-03T15:25:03.103Z,30.60
2022-12-03T15:27:32.697Z,26.92
2022-12-03T15:30:01.114Z,27.23
2022-12-03T15:32:29.177Z,23.95
2022-12-03T15:34:57.205Z,28.02
2022-12-03T15:37:28.011Z,25.23
2022-12-03T15:39:56.238Z,30.48
2022-12-03T15:42:24.436Z,30.75
2022-12-03T15:44:52.366Z,27.45
2022-12-03T15:47:20.320Z,27.35
2022-12-03T15:49:48.845Z,27.08
2022-12-03T15:52:16.814Z,31.30
2022-12-03T15:54:46.455Z,31.55
2022-12-03T15:57:15.434Z,29.67
2022-12-03T15:59:44.062Z,26.60
2022-12-03T16:02:12.185Z,28.40
2022-12-03T16:04:40.124Z,31.95
2022-12-03T16:07:08.056Z,30.38
2022-12-03T16:09:35.993Z,34.05
2022-12-03T16:12:05.772Z,29.23
2022-12-03T16:14:33.880Z,27.67
2022-12-03T16:17:02.244Z,27.20
2022-12-03T16:19:30.188Z,29.70
2022-12-03T16:21:58.106Z,26.40
2022-12-03T16:24:26.021Z,29.77
2022-12-03T16:26:53.918Z,27.65
2022-12-03T16:29:23.242Z,27.85
2022-12-03T16:31:51.314Z,28.25
2022-12-03T16:34:19.313Z,24.92
2022-12-03T16:36:48.482Z,28.48
2022-12-03T16:39:16.823Z,27.65
2022-12-03T16:41:45.200Z,30.27
2022-12-03T16:44:20.371Z,28.05
2022-12-03T16:49:17.508Z,30.55
2022-12-03T16:51:45.539Z,31.00
2022-12-03T16:54:13.586Z,29.80
2022-12-03T16:56:41.556Z,31.20
2022-12-03T16:59:10.496Z,29.38
2022-12-03T17:01:38.505Z,27.88
2022-12-03T17:04:07.818Z,29.60
2022-12-03T17:06:35.839Z,32.55
2022-12-03T17:09:03.793Z,30.73
2022-12-03T17:11:31.709Z,31.33
2022-12-03T17:13:59.622Z,29.88
2022-12-03T17:16:27.824Z,26.95
2022-12-03T17:18:55.924Z,27.48
2022-12-03T17:21:25.274Z,29.52
2022-12-03T17:23:53.197Z,28.75
2022-12-03T17:26:21.412Z,23.92
2022-12-03T17:28:51.316Z,30.83
2022-12-03T17:31:19.526Z,29.13
2022-12-03T17:33:47.639Z,29.85
2022-12-03T17:36:15.558Z,30.95
2022-12-03T17:38:44.778Z,29.13
2022-12-03T17:41:12.704Z,28.63
2022-12-03T17:43:40.572Z,28.85
2022-12-03T17:46:08.924Z,27.52
2022-12-03T17:48:37.125Z,28.40
2022-12-03T17:51:05.368Z,28.20
2022-12-03T17:53:33.244Z,28.55
2022-12-03T17:56:02.526Z,29.77
2022-12-03T17:58:30.577Z,30.35
2022-12-03T18:01:02.670Z,28.85
2022-12-03T18:03:31.302Z,29.67
2022-12-03T18:05:59.479Z,30.20
2022-12-03T18:08:27.596Z,30.30
2022-12-03T18:10:55.733Z,32.28
2022-12-03T18:13:25.060Z,29.88
2022-12-03T18:15:53.084Z,30.13
2022-12-03T18:18:21.128Z,35.53
2022-12-03T18:20:49.298Z,32.00
2022-12-03T18:23:17.388Z,28.08
2022-12-03T18:25:45.503Z,27.17
2022-12-03T18:28:13.458Z,35.95
2022-12-03T18:30:45.120Z,26.67
2022-12-03T18:33:17.345Z,26.08
2022-12-03T18:35:45.654Z,29.75
2022-12-03T18:38:15.341Z,29.20
2022-12-03T18:40:44.457Z,30.50
2022-12-03T18:43:14.176Z,30.60
2022-12-03T18:45:43.745Z,31.73
2022-12-03T18:48:13.797Z,31.42
2022-12-03T18:50:42.404Z,30.23
2022-12-03T18:53:12.183Z,28.63
2022-12-03T18:55:40.428Z,28.85
2022-12-03T18:58:09.023Z,32.50
2022-12-03T19:00:38.155Z,30.83
2022-12-03T19:03:07.762Z,30.42
2022-12-03T19:05:37.326Z,30.95
2022-12-03T19:08:12.495Z,28.48
2022-12-03T19:10:40.699Z,29.20
2022-12-03T19:13:08.836Z,27.65
2022-12-03T19:15:38.045Z,28.70
2022-12-03T19:18:08.151Z,31.17
2022-12-03T19:20:37.375Z,29.95
2022-12-03T19:23:05.535Z,31.05
2022-12-03T19:25:33.514Z,27.75
2022-12-03T19:28:01.436Z,26.52
2022-12-03T19:30:29.353Z,27.80
2022-12-03T19:32:57.304Z,27.90
2022-12-03T19:35:26.755Z,27.63
2022-12-03T19:37:55.732Z,28.08
2022-12-03T19:40:23.661Z,29.33
2022-12-03T19:42:51.601Z,30.45
2022-12-03T19:45:19.589Z,28.90
2022-12-03T19:47:47.622Z,28.98
2022-12-03T19:50:22.607Z,27.50
2022-12-03T19:52:52.689Z,30.95
2022-12-03T19:55:20.729Z,30.30
2022-12-03T19:57:48.826Z,30.88
2022-12-03T20:00:17.676Z,29.30
2022-12-03T20:02:45.811Z,29.55
2022-12-03T20:05:13.785Z,29.98
2022-12-03T20:07:41.754Z,26.15
2022-12-03T20:10:11.594Z,29.75
2022-12-03T20:12:39.551Z,30.40
2022-12-03T20:15:08.274Z,27.08
2022-12-03T20:17:36.709Z,28.10
2022-12-03T20:20:05.394Z,27.10
2022-12-03T20:22:33.284Z,27.70
2022-12-03T20:25:03.635Z,27.50
2022-12-03T20:27:33.243Z,29.60
2022-12-03T20:30:01.205Z,27.77
2022-12-03T20:32:29.127Z,29.40
2022-12-03T20:34:57.108Z,27.50
2022-12-03T20:37:25.087Z,27.60
2022-12-03T20:39:54.037Z,28.02
2022-12-03T20:42:22.333Z,26.85
2022-12-03T20:44:53.943Z,28.98
2022-12-03T20:47:22.129Z,29.58
2022-12-03T20:49:50.081Z,29.90
2022-12-03T20:52:18.106Z,29.08
2022-12-03T20:54:46.187Z,30.25
2022-12-03T20:57:14.150Z,28.33
2022-12-03T20:59:45.261Z,29.20
2022-12-03T21:02:14.639Z,29.27
2022-12-03T21:04:42.990Z,30.67
2022-12-03T21:07:11.045Z,29.90
2022-12-03T21:09:39.022Z,29.90
2022-12-03T21:12:07.173Z,29.45
2022-12-03T21:14:35.714Z,32.40
2022-12-03T21:17:08.755Z,27.40
2022-12-03T21:19:39.188Z,28.73
2022-12-03T21:22:07.660Z,31.15
2022-12-03T21:24:35.596Z,29.33
2022-12-03T21:27:03.737Z,28.13
2022-12-03T21:29:31.779Z,27.85
2022-12-03T21:31:59.726Z,27.73
2022-12-03T21:34:34.217Z,27.73
2022-12-03T21:37:05.367Z,28.75
2022-12-03T21:39:33.440Z,29.92
2022-12-03T21:42:19.068Z,33.08
2022-12-03T21:44:49.379Z,27.23
2022-12-03T21:47:17.401Z,32.03
2022-12-03T21:49:45.366Z,28.92
2022-12-03T21:52:14.780Z,28.88
2022-12-03T21:54:42.781Z,30.33
2022-12-03T21:57:10.659Z,28.55
2022-12-03T21:59:38.592Z,27.25
2022-12-03T22:02:06.827Z,30.95
2022-12-03T22:04:34.916Z,26.77
2022-12-03T22:07:02.882Z,27.83
2022-12-03T22:09:33.663Z,30.00
2022-12-03T22:12:01.608Z,28.77
2022-12-03T22:14:29.745Z,29.02
2022-12-03T22:16:57.668Z,28.65
2022-12-03T22:19:25.982Z,29.15
2022-12-03T22:21:53.942Z,28.13
2022-12-03T22:24:23.575Z,27.48
2022-12-03T22:26:54.666Z,25.75
2022-12-03T22:29:22.627Z,27.00
2022-12-03T22:31:50.768Z,25.85
2022-12-03T22:34:18.637Z,27.05
2022-12-03T22:36:46.550Z,26.40
2022-12-03T22:39:14.468Z,26.35
2022-12-03T22:41:42.670Z,26.17
2022-12-03T22:44:12.240Z,27.98
2022-12-03T22:46:40.346Z,25.20
2022-12-03T22:49:08.300Z,24.40
2022-12-03T22:51:36.534Z,27.10
2022-12-03T22:54:05.425Z,26.08
2022-12-03T22:56:33.586Z,27.10
2022-12-03T22:59:01.597Z,26.23
2022-12-03T23:01:32.902Z,25.63
2022-12-03T23:04:01.806Z,26.77
2022-12-03T23:06:31.114Z,25.23
2022-12-03T23:08:59.759Z,24.83
2022-12-03T23:11:28.180Z,26.42
2022-12-03T23:13:56.447Z,25.85
2022-12-03T23:16:27.233Z,27.13
2022-12-03T23:18:58.104Z,26.33
2022-12-03T23:21:30.282Z,24.92
2022-12-03T23:23:58.788Z,27.25
2022-12-03T23:26:27.527Z,28.23
2022-12-03T23:28:55.709Z,24.70
2022-12-03T23:31:26.220Z,29.23
2022-12-03T23:33:56.561Z,26.65
2022-12-03T23:36:26.660Z,25.50
2022-12-03T23:38:55.215Z,25.38
2022-12-03T23:41:24.483Z,24.05
2022-12-03T23:43:52.474Z,28.02
2022-12-03T23:46:21.895Z,25.02
2022-12-03T23:48:50.574Z,26.65
2022-12-03T23:51:23.180Z,24.13
2022-12-03T23:53:52.671Z,25.60
2022-12-03T23:56:22.164Z,26.23
2022-12-03T23:58:50.081Z,26.38
